Finest — WCW8374 — position and weather

sailwx.info

Track history (hours):
 
Tides and Currents Weather Stations Pressure Air Temp Water Temp Dewpoint Dewpoint Depression Visibility Wind Speed Wind Dir Waves Ship Positions

Finest

Owner: NEW YORK FAST FERRY SERVICES INC, MAMARONECK, NY. More information available from US FCC via Universal Licensing System and Coast Guard Vessel Documentation Center.

Last reported at 2015-Mar-04 23:33 UTC. Time now 2015-Mar-05 02:37 UTC.
Position N 40°36' W 074°03'.

Length 38 m.

Type: High speed craft. MMSI: 366990590.

Date/timePositionNaut miles runAvg speedWind from/ knotsBaromVisibWave heightAir tempDewpointWater temp
2015-Mar-04 23:33N 40°36' W 074°03'10 6.8
2015-Mar-04 22:06N 40°26' W 074°05'1628.5
2015-Mar-04 21:34N 40°41' W 074°01'5 4.9
2015-Mar-04 20:33N 40°46' W 074°01'0 0.0
2015-Mar-04 19:33N 40°46' W 074°01'0 0.0
2015-Mar-04 18:32N 40°46' W 074°01'0 0.0
2015-Mar-04 17:31N 40°46' W 074°01'0 0.0
2015-Mar-04 16:33N 40°46' W 074°01'0 0.0
2015-Mar-04 15:05N 40°46' W 074°01'0 0.0
2015-Mar-04 14:33N 40°46' W 074°01'8 7.7
2015-Mar-04 13:34N 40°39' W 074°02'3 2.1
2015-Mar-04 12:15N 40°36' W 074°03'4 6.2
2015-Mar-04 11:34N 40°40' W 074°01'4 0.3
2015-Mar-03 23:33N 40°37' W 074°03'5 2.5
2015-Mar-03 21:34N 40°41' W 074°01'5 4.9
2015-Mar-03 20:33N 40°46' W 074°01'0 0.0
2015-Mar-03 19:33N 40°46' W 074°01'0 0.0
2015-Mar-03 18:33N 40°46' W 074°01'0 0.0
2015-Mar-03 17:33N 40°46' W 074°01'0 0.0
2015-Mar-03 16:33N 40°46' W 074°01'0 0.0
2015-Mar-03 15:33N 40°46' W 074°01'0 0.0
2015-Mar-03 14:33N 40°46' W 074°01'7 7.4
2015-Mar-03 13:34N 40°39' W 074°02'4 2.8
2015-Mar-03 12:16N 40°35' W 074°03'5 6.6
2015-Mar-03 11:34N 40°40' W 074°02'4 0.3
2015-Mar-02 23:33N 40°36' W 074°03'6 2.8
2015-Mar-02 21:33N 40°41' W 074°01'5 5.0
2015-Mar-02 20:33N 40°46' W 074°01'0 0.0
2015-Mar-02 19:33N 40°46' W 074°01'0 0.0
2015-Mar-02 18:33N 40°46' W 074°01'0 0.0
2015-Mar-02 17:33N 40°46' W 074°01'0 0.0
2015-Mar-02 16:33N 40°46' W 074°01'0 0.0
2015-Mar-02 15:33N 40°46' W 074°01'0 0.0
2015-Mar-02 14:33N 40°46' W 074°01'8 7.8
2015-Mar-02 13:33N 40°39' W 074°02'2 1.7
2015-Mar-02 12:21N 40°37' W 074°03'1 1.4
2015-Mar-02 11:33N 40°38' W 074°03'  
2015-Feb-27 23:32N 40°35' W 074°03'7 3.5
2015-Feb-27 21:34N 40°42' W 074°00'4 4.4
2015-Feb-27 20:33N 40°46' W 074°01'0 0.0
2015-Feb-27 19:33N 40°46' W 074°01'0 0.0
2015-Feb-27 18:33N 40°46' W 074°01'0 0.0
2015-Feb-27 17:33N 40°46' W 074°01'0 0.0
2015-Feb-27 16:33N 40°46' W 074°01'0 0.0
2015-Feb-27 15:33N 40°46' W 074°01'0 0.0
2015-Feb-27 14:33N 40°46' W 074°01'9 9.3
2015-Feb-27 13:33N 40°37' W 074°03'4 3.8
2015-Feb-27 12:31N 40°33' W 074°02'2 2.5
2015-Feb-27 11:33N 40°36' W 074°02'10 6.6
2015-Feb-27 10:05N 40°26' W 074°05'11 1.0
2015-Feb-26 23:32N 40°36' W 074°03'9 9.3
2015-Feb-26 22:31N 40°27' W 074°05'1515.3
2015-Feb-26 21:34N 40°42' W 074°01'5 4.4
2015-Feb-26 20:32N 40°46' W 074°01'0 0.0
2015-Feb-26 19:33N 40°46' W 074°01'0 0.0
2015-Feb-26 18:32N 40°46' W 074°01'0 0.0
2015-Feb-26 17:31N 40°46' W 074°01'0 0.0
2015-Feb-26 16:26N 40°46' W 074°01'0 0.0
2015-Feb-26 15:33N 40°46' W 074°01'1 1.0
2015-Feb-26 14:33N 40°45' W 074°01'7 7.1
2015-Feb-26 13:33N 40°38' W 074°02'2 1.7
2015-Feb-26 12:17N 40°36' W 074°02'0 0.6
2015-Feb-26 11:30N 40°36' W 074°03'10 0.7
2015-Feb-25 22:08N 40°26' W 074°05'1627.2
2015-Feb-25 21:33N 40°41' W 074°01'5 4.7
2015-Feb-25 20:31N 40°46' W 074°01'0 0.0
2015-Feb-25 19:33N 40°46' W 074°01'0 0.0
2015-Feb-25 18:33N 40°46' W 074°01'0 0.0
2015-Feb-25 17:32N 40°46' W 074°01'0 0.0
2015-Feb-25 16:30N 40°46' W 074°01'0 0.0
2015-Feb-25 15:30N 40°46' W 074°01'3 2.8
2015-Feb-25 14:33N 40°44' W 074°01'1211.7
2015-Feb-25 13:33N 40°32' W 074°04'5 4.5
2015-Feb-25 12:33N 40°37' W 074°03'3 2.8
2015-Feb-25 11:32N 40°34' W 074°02'9 0.6
2015-Feb-24 21:34N 40°42' W 074°00'2 2.1
2015-Feb-24 20:33N 40°44' W 074°02'2 2.2
2015-Feb-24 19:33N 40°46' W 074°01'0 0.0
2015-Feb-24 18:30N 40°46' W 074°01'0 0.0
2015-Feb-24 17:19N 40°46' W 074°01'0 0.0
2015-Feb-24 16:32N 40°46' W 074°01'0 0.1
2015-Feb-24 15:33N 40°46' W 074°01'4 4.3
2015-Feb-24 14:33N 40°42' W 074°01'1 0.5
2015-Feb-24 12:33N 40°43' W 074°01'1 0.1
2015-Feb-23 23:33N 40°42' W 074°00'1413.7
2015-Feb-23 22:31N 40°28' W 074°04'1415.0
2015-Feb-23 21:33N 40°42' W 074°00'3 3.4
2015-Feb-23 20:33N 40°46' W 074°00'1 0.7
2015-Feb-23 19:33N 40°46' W 074°01'0 0.0
2015-Feb-23 18:33N 40°46' W 074°01'0 0.0
2015-Feb-23 17:33N 40°46' W 074°01'0 0.0
2015-Feb-23 16:33N 40°46' W 074°01'4 4.4
2015-Feb-23 15:33N 40°42' W 074°00'0 0.3
2015-Feb-23 14:33N 40°42' W 074°01'4 3.6
2015-Feb-23 13:33N 40°38' W 074°02'4 3.1
2015-Feb-23 12:23N 40°35' W 074°03'3 3.6
2015-Feb-23 11:33N 40°38' W 074°03'  
Track history (hours):
 
Tides and Currents Weather Stations Pressure Air Temp Water Temp Dewpoint Dewpoint Depression Visibility Wind Speed Wind Dir Waves Ship Positions

Finest

Owner: NEW YORK FAST FERRY SERVICES INC, MAMARONECK, NY. More information available from US FCC via Universal Licensing System and Coast Guard Vessel Documentation Center.

Last reported at 2015-Mar-04 23:33 UTC. Time now 2015-Mar-05 02:37 UTC.
Position N 40°36' W 074°03'.

Length 38 m.

Type: High speed craft. MMSI: 366990590.

Date/timePositionNaut miles runAvg speedWind from/ knotsBaromVisibWave heightAir tempDewpointWater temp
2015-Mar-04 23:33N 40°36' W 074°03'10 6.8
2015-Mar-04 22:06N 40°26' W 074°05'1628.5
2015-Mar-04 21:34N 40°41' W 074°01'5 4.9
2015-Mar-04 20:33N 40°46' W 074°01'0 0.0
2015-Mar-04 19:33N 40°46' W 074°01'0 0.0
2015-Mar-04 18:32N 40°46' W 074°01'0 0.0
2015-Mar-04 17:31N 40°46' W 074°01'0 0.0
2015-Mar-04 16:33N 40°46' W 074°01'0 0.0
2015-Mar-04 15:05N 40°46' W 074°01'0 0.0
2015-Mar-04 14:33N 40°46' W 074°01'8 7.7
2015-Mar-04 13:34N 40°39' W 074°02'3 2.1
2015-Mar-04 12:15N 40°36' W 074°03'4 6.2
2015-Mar-04 11:34N 40°40' W 074°01'4 0.3
2015-Mar-03 23:33N 40°37' W 074°03'5 2.5
2015-Mar-03 21:34N 40°41' W 074°01'5 4.9
2015-Mar-03 20:33N 40°46' W 074°01'0 0.0
2015-Mar-03 19:33N 40°46' W 074°01'0 0.0
2015-Mar-03 18:33N 40°46' W 074°01'0 0.0
2015-Mar-03 17:33N 40°46' W 074°01'0 0.0
2015-Mar-03 16:33N 40°46' W 074°01'0 0.0
2015-Mar-03 15:33N 40°46' W 074°01'0 0.0
2015-Mar-03 14:33N 40°46' W 074°01'7 7.4
2015-Mar-03 13:34N 40°39' W 074°02'4 2.8
2015-Mar-03 12:16N 40°35' W 074°03'5 6.6
2015-Mar-03 11:34N 40°40' W 074°02'4 0.3
2015-Mar-02 23:33N 40°36' W 074°03'6 2.8
2015-Mar-02 21:33N 40°41' W 074°01'5 5.0
2015-Mar-02 20:33N 40°46' W 074°01'0 0.0
2015-Mar-02 19:33N 40°46' W 074°01'0 0.0
2015-Mar-02 18:33N 40°46' W 074°01'0 0.0
2015-Mar-02 17:33N 40°46' W 074°01'0 0.0
2015-Mar-02 16:33N 40°46' W 074°01'0 0.0
2015-Mar-02 15:33N 40°46' W 074°01'0 0.0
2015-Mar-02 14:33N 40°46' W 074°01'8 7.8
2015-Mar-02 13:33N 40°39' W 074°02'2 1.7
2015-Mar-02 12:21N 40°37' W 074°03'1 1.4
2015-Mar-02 11:33N 40°38' W 074°03'  
2015-Feb-27 23:32N 40°35' W 074°03'7 3.5
2015-Feb-27 21:34N 40°42' W 074°00'4 4.4
2015-Feb-27 20:33N 40°46' W 074°01'0 0.0
2015-Feb-27 19:33N 40°46' W 074°01'0 0.0
2015-Feb-27 18:33N 40°46' W 074°01'0 0.0
2015-Feb-27 17:33N 40°46' W 074°01'0 0.0
2015-Feb-27 16:33N 40°46' W 074°01'0 0.0
2015-Feb-27 15:33N 40°46' W 074°01'0 0.0
2015-Feb-27 14:33N 40°46' W 074°01'9 9.3
2015-Feb-27 13:33N 40°37' W 074°03'4 3.8
2015-Feb-27 12:31N 40°33' W 074°02'2 2.5
2015-Feb-27 11:33N 40°36' W 074°02'10 6.6
2015-Feb-27 10:05N 40°26' W 074°05'11 1.0
2015-Feb-26 23:32N 40°36' W 074°03'9 9.3
2015-Feb-26 22:31N 40°27' W 074°05'1515.3
2015-Feb-26 21:34N 40°42' W 074°01'5 4.4
2015-Feb-26 20:32N 40°46' W 074°01'0 0.0
2015-Feb-26 19:33N 40°46' W 074°01'0 0.0
2015-Feb-26 18:32N 40°46' W 074°01'0 0.0
2015-Feb-26 17:31N 40°46' W 074°01'0 0.0
2015-Feb-26 16:26N 40°46' W 074°01'0 0.0
2015-Feb-26 15:33N 40°46' W 074°01'1 1.0
2015-Feb-26 14:33N 40°45' W 074°01'7 7.1
2015-Feb-26 13:33N 40°38' W 074°02'2 1.7
2015-Feb-26 12:17N 40°36' W 074°02'0 0.6
2015-Feb-26 11:30N 40°36' W 074°03'10 0.7
2015-Feb-25 22:08N 40°26' W 074°05'1627.2
2015-Feb-25 21:33N 40°41' W 074°01'5 4.7
2015-Feb-25 20:31N 40°46' W 074°01'0 0.0
2015-Feb-25 19:33N 40°46' W 074°01'0 0.0
2015-Feb-25 18:33N 40°46' W 074°01'0 0.0
2015-Feb-25 17:32N 40°46' W 074°01'0 0.0
2015-Feb-25 16:30N 40°46' W 074°01'0 0.0
2015-Feb-25 15:30N 40°46' W 074°01'3 2.8
2015-Feb-25 14:33N 40°44' W 074°01'1211.7
2015-Feb-25 13:33N 40°32' W 074°04'5 4.5
2015-Feb-25 12:33N 40°37' W 074°03'3 2.8
2015-Feb-25 11:32N 40°34' W 074°02'9 0.6
2015-Feb-24 21:34N 40°42' W 074°00'2 2.1
2015-Feb-24 20:33N 40°44' W 074°02'2 2.2
2015-Feb-24 19:33N 40°46' W 074°01'0 0.0
2015-Feb-24 18:30N 40°46' W 074°01'0 0.0
2015-Feb-24 17:19N 40°46' W 074°01'0 0.0
2015-Feb-24 16:32N 40°46' W 074°01'0 0.1
2015-Feb-24 15:33N 40°46' W 074°01'4 4.3
2015-Feb-24 14:33N 40°42' W 074°01'1 0.5
2015-Feb-24 12:33N 40°43' W 074°01'1 0.1
2015-Feb-23 23:33N 40°42' W 074°00'1413.7
2015-Feb-23 22:31N 40°28' W 074°04'1415.0
2015-Feb-23 21:33N 40°42' W 074°00'3 3.4
2015-Feb-23 20:33N 40°46' W 074°00'1 0.7
2015-Feb-23 19:33N 40°46' W 074°01'0 0.0
2015-Feb-23 18:33N 40°46' W 074°01'0 0.0
2015-Feb-23 17:33N 40°46' W 074°01'0 0.0
2015-Feb-23 16:33N 40°46' W 074°01'4 4.4
2015-Feb-23 15:33N 40°42' W 074°00'0 0.3
2015-Feb-23 14:33N 40°42' W 074°01'4 3.6
2015-Feb-23 13:33N 40°38' W 074°02'4 3.1
2015-Feb-23 12:23N 40°35' W 074°03'3 3.6
2015-Feb-23 11:33N 40°38' W 074°03'  

Dump ship's entire track history